スィクティフカル の空港の天気 - METARとTAF

Syktyvkar ( UUYY / SCW ) - ロシア スィクティフカル
飛行場実況気象(Metar)
観測時間04/21 03:00 MSK (04/21 00:00 UTC)
風向・風速西 2m/s
視程10km以上
天気現象
なし
気温-6℃
湿度68%
気圧1009hPa
METARUUYY 210000Z 28002MPS 220V320 CAVOK M06/M11 Q1009 R36/61D NOSIG RMK QFE748/0997
過去の天気等 Google飛行場航空写真 Wunderground天気予報

過去48時間のMETAR

飛行場予報(TAF)
発表時間: 4/21 02:00 MSK (4/20 23:00 UTC)
予報対象時間: 21日3時 MSK ~ 22日3時 MSK
風向・風速西北西 3m/s
視程10km以上
全天の8割程度の雲 雲底高度 460m
全天の4割程度の積乱雲 雲底高度 610m
21日3時 MSK ~ 22日3時 MSK に一時的に
視程3,100m
天気現象弱いしゅう雪 もや
全天の8割程度の雲 雲底高度 340m
全天の8割程度の積乱雲 雲底高度 460m
21日6時 MSK ~ 21日8時 MSK に徐々に
風向・風速不定 1m/s
21日17時 MSK ~ 21日19時 MSK に徐々に
風向・風速東 3m/s 瞬間風速 8m/s
TAF UUYY 202300Z 2100/2124 29003MPS 9999 BKN015 SCT020CB
TEMPO 2100/2124 3100 -SHSN BR BKN011 BKN015CB
BECMG 2103/2105 VRB01MPS
BECMG 2114/2116 09003G08MPS